USAV Mg Robert Small — AABF — position and weather

sailwx.info

Track history (hours):
 
Tides and Currents Weather Stations Pressure Air Temp Water Temp Dewpoint Dewpoint Depression Visibility Wind Speed Wind Dir Waves Ship Positions

USAV Mg Robert Small

Last reported at 2017-Nov-07 18:44 UTC. Time now 2017-Nov-18 19:38 UTC.
Position N 36°50' W 076°17'.
Warning: this ship's position is 11 days out of date.

Type: Military. MMSI: 369872000.

Date/timePositionNaut miles runAvg speedWind from/ knotsBaromVisibWave heightAir tempDewpointWater temp
2017-Nov-07 18:44N 36°50' W 076°17'0 0.0
2017-Nov-07 18:29N 36°50' W 076°17'1 2.0
2017-Nov-07 18:00N 36°51' W 076°18'2 3.1
2017-Nov-07 17:30N 36°52' W 076°19'3 5.7
2017-Nov-07 17:01N 36°54' W 076°20'3 6.0
2017-Nov-07 16:30N 36°57' W 076°21'1 1.8
2017-Nov-07 16:00N 36°57' W 076°22'0 0.7
2017-Nov-07 15:30N 36°57' W 076°22'8 0.9
2017-Nov-07 05:59N 36°50' W 076°17'0 0.0
2017-Nov-07 05:26N 36°50' W 076°17'0 0.0
2017-Nov-07 04:59N 36°50' W 076°17'0 0.0
2017-Nov-07 04:29N 36°50' W 076°17'0 0.0
2017-Nov-07 03:59N 36°50' W 076°17'0 0.0
2017-Nov-07 03:29N 36°50' W 076°17'0 0.0
2017-Nov-07 02:59N 36°50' W 076°17'0 0.0
2017-Nov-07 02:29N 36°50' W 076°17'0 0.0
2017-Nov-07 01:59N 36°50' W 076°17'0 0.0
2017-Nov-07 01:29N 36°50' W 076°17'0 0.0
2017-Nov-07 01:00N 36°50' W 076°17'0 0.0
2017-Nov-07 00:29N 36°50' W 076°17'0 0.0
2017-Nov-06 23:59N 36°50' W 076°17'0 0.0
2017-Nov-06 23:30N 36°50' W 076°17'0 0.0
2017-Nov-06 23:00N 36°50' W 076°17'0 0.0
2017-Nov-06 22:26N 36°50' W 076°17'0 0.0
2017-Nov-06 21:53N 36°50' W 076°17'0 0.0
2017-Nov-06 21:26N 36°50' W 076°17'0 0.0
2017-Nov-06 20:59N 36°50' W 076°17'0 0.0
2017-Nov-06 20:26N 36°50' W 076°17'0 0.0
2017-Nov-06 02:29N 36°50' W 076°17'0 0.0
2017-Nov-06 01:59N 36°50' W 076°17'0 0.0
2017-Nov-06 01:29N 36°50' W 076°17'0 0.0
2017-Nov-06 01:00N 36°50' W 076°17'0 0.0
2017-Nov-06 00:29N 36°50' W 076°17'0 0.0
2017-Nov-05 23:59N 36°50' W 076°17'0 0.0
2017-Nov-05 23:29N 36°50' W 076°17'0 0.0
2017-Nov-05 22:56N 36°50' W 076°17'0 0.0
2017-Nov-05 22:30N 36°50' W 076°17'0 0.0
2017-Nov-05 21:59N 36°50' W 076°17'0 0.0
2017-Nov-05 21:29N 36°50' W 076°17'0 0.0
2017-Nov-05 20:59N 36°50' W 076°17'0 0.0
2017-Nov-05 20:26N 36°50' W 076°17'0 0.0
2017-Nov-05 19:59N 36°50' W 076°17'0 0.0
2017-Nov-05 19:29N 36°50' W 076°17'0 0.0
2017-Nov-05 18:59N 36°50' W 076°17'0 0.0
2017-Nov-05 18:29N 36°50' W 076°17'0 0.0
2017-Nov-05 17:59N 36°50' W 076°17'0 0.0
2017-Nov-05 17:23N 36°50' W 076°17'0 0.0
2017-Nov-05 16:59N 36°50' W 076°17'0 0.0
2017-Nov-05 16:29N 36°50' W 076°17'0 0.0
2017-Nov-05 15:53N 36°50' W 076°17'0 0.0
2017-Nov-05 15:29N 36°50' W 076°17'0 0.0
2017-Nov-05 14:59N 36°50' W 076°17'0 0.0
2017-Nov-05 14:26N 36°50' W 076°17'0 0.0
2017-Nov-05 13:56N 36°50' W 076°17'0 0.0
2017-Nov-05 13:29N 36°50' W 076°17'0 0.0
2017-Nov-05 12:59N 36°50' W 076°17'0 0.0
2017-Nov-05 12:29N 36°50' W 076°17'0 0.0
2017-Nov-05 11:59N 36°50' W 076°17'0 0.0
2017-Nov-05 11:26N 36°50' W 076°17'0 0.0
2017-Nov-05 10:56N 36°50' W 076°17'0 0.0
2017-Nov-05 10:29N 36°50' W 076°17'0 0.0
2017-Nov-05 09:59N 36°50' W 076°17'0 0.0
2017-Nov-05 09:29N 36°50' W 076°17'0 0.0
2017-Nov-05 08:56N 36°50' W 076°17'0 0.0
2017-Nov-05 08:29N 36°50' W 076°17'0 0.0
2017-Nov-05 07:59N 36°50' W 076°17'0 0.0
2017-Nov-05 07:26N 36°50' W 076°17'0 0.0
2017-Nov-05 06:59N 36°50' W 076°17'0 0.0
2017-Nov-05 06:26N 36°50' W 076°17'0 0.0
2017-Nov-05 05:59N 36°50' W 076°17'0 0.0
2017-Nov-05 05:29N 36°50' W 076°17'0 0.0
2017-Nov-05 04:59N 36°50' W 076°17'0 0.0
2017-Nov-05 04:29N 36°50' W 076°17'0 0.0
2017-Nov-05 03:56N 36°50' W 076°17'0 0.0
2017-Nov-05 03:29N 36°50' W 076°17'0 0.0
2017-Nov-05 02:56N 36°50' W 076°17'0 0.0
2017-Nov-05 02:29N 36°50' W 076°17'0 0.0
2017-Nov-05 01:59N 36°50' W 076°17'0 0.0
2017-Nov-05 01:29N 36°50' W 076°17'0 0.0
2017-Nov-05 00:59N 36°50' W 076°17'0 0.0
2017-Nov-05 00:20N 36°50' W 076°17'0 0.0
2017-Nov-04 23:59N 36°50' W 076°17'0 0.0
2017-Nov-04 23:30N 36°50' W 076°17'0 0.0
2017-Nov-04 22:59N 36°50' W 076°17'0 0.0
2017-Nov-04 22:29N 36°50' W 076°17'0 0.0
2017-Nov-04 21:59N 36°50' W 076°17'0 0.0
2017-Nov-04 21:29N 36°50' W 076°17'0 0.0
2017-Nov-04 20:56N 36°50' W 076°17'0 0.0
2017-Nov-04 20:29N 36°50' W 076°17'0 0.0
2017-Nov-04 19:59N 36°50' W 076°17'0 0.0
2017-Nov-04 19:17N 36°50' W 076°17'0 0.0
2017-Nov-04 18:59N 36°50' W 076°17'0 0.0
2017-Nov-04 18:29N 36°50' W 076°17'0 0.0
2017-Nov-04 17:59N 36°50' W 076°17'0 0.0
2017-Nov-04 17:29N 36°50' W 076°17'0 0.0
2017-Nov-04 16:59N 36°50' W 076°17'0 0.0
2017-Nov-04 16:29N 36°50' W 076°17'0 0.0
2017-Nov-04 15:59N 36°50' W 076°17'0 0.0
2017-Nov-04 15:29N 36°50' W 076°17'0 0.0
2017-Nov-04 14:56N 36°50' W 076°17'0 0.0
2017-Nov-04 14:29N 36°50' W 076°17'0 0.0
2017-Nov-04 13:59N 36°50' W 076°17'0 0.0
2017-Nov-04 13:29N 36°50' W 076°17'0 0.0
2017-Nov-04 12:59N 36°50' W 076°17'0 0.0
2017-Nov-04 12:29N 36°50' W 076°17'0 0.0
2017-Nov-04 11:59N 36°50' W 076°17'0 0.0
2017-Nov-04 11:26N 36°50' W 076°17'0 0.0
2017-Nov-04 10:59N 36°50' W 076°17'0 0.0
2017-Nov-04 10:29N 36°50' W 076°17'0 0.0
2017-Nov-04 09:59N 36°50' W 076°17'0 0.0
2017-Nov-04 09:29N 36°50' W 076°17'0 0.0
2017-Nov-04 08:56N 36°50' W 076°17'0 0.0
2017-Nov-04 08:29N 36°50' W 076°17'0 0.0
2017-Nov-04 07:56N 36°50' W 076°17'0 0.0
2017-Nov-04 07:29N 36°50' W 076°17'0 0.0
2017-Nov-04 06:59N 36°50' W 076°17'0 0.0
2017-Nov-04 06:29N 36°50' W 076°17'0 0.0
2017-Nov-04 05:59N 36°50' W 076°17'0 0.0
2017-Nov-04 05:29N 36°50' W 076°17'0 0.0
2017-Nov-04 04:59N 36°50' W 076°17'0 0.0
2017-Nov-04 04:29N 36°50' W 076°17'0 0.0
2017-Nov-04 03:56N 36°50' W 076°17'0 0.0
2017-Nov-04 03:29N 36°50' W 076°17'0 0.0
2017-Nov-04 02:59N 36°50' W 076°17'0 0.0
2017-Nov-04 02:29N 36°50' W 076°17'0 0.0
2017-Nov-04 01:56N 36°50' W 076°17'0 0.0
2017-Nov-04 01:23N 36°50' W 076°17'0 0.0
2017-Nov-04 00:59N 36°50' W 076°17'0 0.0
2017-Nov-04 00:29N 36°50' W 076°17'0 0.0
2017-Nov-03 23:59N 36°50' W 076°17'0 0.0
2017-Nov-03 23:29N 36°50' W 076°17'0 0.0
2017-Nov-03 23:00N 36°50' W 076°17'0 0.0
2017-Nov-03 22:29N 36°50' W 076°17'0 0.0
2017-Nov-03 21:59N 36°50' W 076°17'0 0.0
2017-Nov-03 21:29N 36°50' W 076°17'0 0.0
2017-Nov-03 20:59N 36°50' W 076°17'0 0.0
2017-Nov-03 20:29N 36°50' W 076°17'0 0.0
2017-Nov-03 19:59N 36°50' W 076°17'0 0.0
2017-Nov-03 19:29N 36°50' W 076°17'0 0.0
2017-Nov-03 18:59N 36°50' W 076°17'0 0.0
2017-Nov-03 18:29N 36°50' W 076°17'0 0.0
2017-Nov-03 17:56N 36°50' W 076°17'0 0.0
2017-Nov-03 17:29N 36°50' W 076°17'0 0.0
2017-Nov-03 16:59N 36°50' W 076°17'0 0.0
2017-Nov-03 16:29N 36°50' W 076°17'0 0.0
2017-Nov-03 15:59N 36°50' W 076°17'0 0.2
2017-Nov-03 15:23N 36°50' W 076°17'0 0.1
2017-Nov-03 14:59N 36°50' W 076°17'0 0.3
2017-Nov-03 14:29N 36°50' W 076°17'0 0.0
2017-Nov-03 13:59N 36°50' W 076°17'0 0.0
2017-Nov-03 13:29N 36°50' W 076°17'0 0.0
2017-Nov-03 12:59N 36°50' W 076°17'0 0.0
2017-Nov-03 12:29N 36°50' W 076°17'0 0.0
2017-Nov-03 11:59N 36°50' W 076°17'0 0.0
2017-Nov-03 11:29N 36°50' W 076°17'0 0.0
2017-Nov-02 19:48N 36°50' W 076°17'0 0.0
2017-Nov-02 19:30N 36°50' W 076°17'0 0.0
2017-Nov-02 19:00N 36°50' W 076°17'0 0.0
2017-Nov-02 18:30N 36°50' W 076°17'0 0.0
2017-Nov-02 18:00N 36°50' W 076°17'0 0.0
2017-Nov-02 17:28N 36°50' W 076°17'0 0.0
2017-Nov-02 16:58N 36°50' W 076°17'0 0.0
2017-Nov-02 16:28N 36°50' W 076°17'0 0.0
2017-Nov-02 15:55N 36°50' W 076°17'0 0.0
2017-Nov-02 15:28N 36°50' W 076°17'0 0.0
2017-Nov-02 14:58N 36°50' W 076°17'0 0.0
2017-Nov-02 14:25N 36°50' W 076°17'0 0.0
2017-Nov-02 13:58N 36°50' W 076°17'0 0.0
2017-Nov-02 13:28N 36°50' W 076°17'0 0.0
2017-Nov-02 12:58N 36°50' W 076°17'0 0.0
2017-Nov-02 12:28N 36°50' W 076°17'0 0.0
2017-Nov-02 11:58N 36°50' W 076°17'0 0.0
2017-Nov-02 11:25N 36°50' W 076°17'0 0.0
2017-Nov-02 10:49N 36°50' W 076°17'0 0.0
2017-Nov-02 10:28N 36°50' W 076°17'0 0.0
2017-Nov-02 09:58N 36°50' W 076°17'0 0.0
2017-Nov-02 09:25N 36°50' W 076°17'0 0.0
2017-Nov-02 08:58N 36°50' W 076°17'0 0.0
2017-Nov-02 08:28N 36°50' W 076°17'0 0.0
2017-Nov-02 07:58N 36°50' W 076°17'0 0.0
2017-Nov-02 07:28N 36°50' W 076°17'0 0.0
2017-Nov-02 06:55N 36°50' W 076°17'0 0.0
2017-Nov-02 06:28N 36°50' W 076°17'0 0.0
2017-Nov-02 05:58N 36°50' W 076°17'0 0.0
2017-Nov-02 05:28N 36°50' W 076°17'0 0.0
2017-Nov-02 04:58N 36°50' W 076°17'0 0.0
2017-Nov-02 04:28N 36°50' W 076°17'0 0.0
2017-Nov-02 03:58N 36°50' W 076°17'0 0.0
2017-Nov-02 03:28N 36°50' W 076°17'0 0.0
2017-Nov-02 02:58N 36°50' W 076°17'0 0.0
2017-Nov-02 02:25N 36°50' W 076°17'0 0.0
2017-Nov-02 01:58N 36°50' W 076°17'0 0.0
2017-Nov-02 01:25N 36°50' W 076°17'0 0.0
2017-Nov-02 00:58N 36°50' W 076°17'0 0.0
2017-Nov-02 00:25N 36°50' W 076°17'0 0.0
2017-Nov-01 23:58N 36°50' W 076°17'0 0.0
2017-Nov-01 23:28N 36°50' W 076°17'0 0.0
2017-Nov-01 22:55N 36°50' W 076°17'0 0.0
2017-Nov-01 22:28N 36°50' W 076°17'0 0.0
2017-Nov-01 21:58N 36°50' W 076°17'0 0.0
2017-Nov-01 21:28N 36°50' W 076°17'0 0.0
2017-Nov-01 20:55N 36°50' W 076°17'0 0.0
2017-Nov-01 20:28N 36°50' W 076°17'0 0.0
2017-Nov-01 19:58N 36°50' W 076°17'0 0.0
2017-Nov-01 19:28N 36°50' W 076°17'0 0.0
2017-Nov-01 18:58N 36°50' W 076°17'0 0.0
2017-Nov-01 18:28N 36°50' W 076°17'0 0.0
2017-Nov-01 01:58N 36°50' W 076°17'0 0.0
2017-Nov-01 01:28N 36°50' W 076°17'0 0.0
2017-Nov-01 00:58N 36°50' W 076°17'0 0.0
2017-Nov-01 00:28N 36°50' W 076°17'0 0.0
2017-Oct-31 23:58N 36°50' W 076°17'0 0.0
2017-Oct-31 23:28N 36°50' W 076°17'0 0.0
2017-Oct-31 22:58N 36°50' W 076°17'0 0.0
2017-Oct-31 22:25N 36°50' W 076°17'0 0.0
2017-Oct-31 21:58N 36°50' W 076°17'0 0.0
2017-Oct-31 21:28N 36°50' W 076°17'0 0.0
2017-Oct-31 20:58N 36°50' W 076°17'0 0.0
2017-Oct-31 20:25N 36°50' W 076°17'0 0.0
2017-Oct-31 19:58N 36°50' W 076°17'0 0.0
2017-Oct-31 19:28N 36°50' W 076°17'0 0.0
2017-Oct-31 18:58N 36°50' W 076°17'0 0.0
2017-Oct-31 18:28N 36°50' W 076°17'0 0.0
2017-Oct-31 17:58N 36°50' W 076°17'0 0.0
2017-Oct-31 17:25N 36°50' W 076°17'0 0.0
2017-Oct-31 16:58N 36°50' W 076°17'0 0.0
2017-Oct-31 16:25N 36°50' W 076°17'0 0.0
2017-Oct-31 15:58N 36°50' W 076°17'0 0.0
2017-Oct-31 15:28N 36°50' W 076°17'0 0.0
2017-Oct-31 14:58N 36°50' W 076°17'0 0.0
2017-Oct-31 14:28N 36°50' W 076°17'0 0.0
2017-Oct-31 13:58N 36°50' W 076°17'0 0.0
2017-Oct-31 13:25N 36°50' W 076°17'0 0.0
2017-Oct-31 12:58N 36°50' W 076°17'0 0.0
2017-Oct-31 12:28N 36°50' W 076°17'0 0.0
2017-Oct-31 11:58N 36°50' W 076°17'0 0.0
2017-Oct-31 11:22N 36°50' W 076°17'0 0.0
2017-Oct-31 10:58N 36°50' W 076°17'0 0.0
2017-Oct-31 10:28N 36°50' W 076°17'0 0.0
2017-Oct-31 09:58N 36°50' W 076°17'0 0.0
2017-Oct-31 09:22N 36°50' W 076°17'0 0.0
2017-Oct-31 08:58N 36°50' W 076°17'0 0.0
2017-Oct-31 08:22N 36°50' W 076°17'0 0.0
2017-Oct-31 07:58N 36°50' W 076°17'0 0.0
2017-Oct-31 07:25N 36°50' W 076°17'0 0.0
2017-Oct-31 06:55N 36°50' W 076°17'0 0.0
2017-Oct-31 06:28N 36°50' W 076°17'0 0.0
2017-Oct-31 05:55N 36°50' W 076°17'0 0.0
2017-Oct-31 05:25N 36°50' W 076°17'0 0.0
2017-Oct-31 04:58N 36°50' W 076°17'0 0.0
2017-Oct-31 04:28N 36°50' W 076°17'0 0.0
2017-Oct-31 03:58N 36°50' W 076°17'0 0.0
2017-Oct-31 03:28N 36°50' W 076°17'0 0.0
2017-Oct-31 02:58N 36°50' W 076°17'0 0.0
2017-Oct-31 02:28N 36°50' W 076°17'0 0.0
2017-Oct-31 01:55N 36°50' W 076°17'0 0.0
2017-Oct-31 01:25N 36°50' W 076°17'0 0.0
2017-Oct-31 00:58N 36°50' W 076°17'0 0.0
2017-Oct-31 00:28N 36°50' W 076°17'0 0.0
2017-Oct-30 23:55N 36°50' W 076°17'0 0.0
2017-Oct-30 23:28N 36°50' W 076°17'0 0.0
2017-Oct-30 22:58N 36°50' W 076°17'0 0.0
2017-Oct-30 22:25N 36°50' W 076°17'0 0.0
2017-Oct-30 21:58N 36°50' W 076°17'0 0.0
2017-Oct-30 21:28N 36°50' W 076°17'0 0.0
2017-Oct-30 20:58N 36°50' W 076°17'0 0.0
2017-Oct-30 20:28N 36°50' W 076°17'0 0.0
2017-Oct-30 19:58N 36°50' W 076°17'0 0.0
2017-Oct-30 19:28N 36°50' W 076°17'0 0.0
2017-Oct-30 18:58N 36°50' W 076°17'0 0.0
2017-Oct-30 18:28N 36°50' W 076°17'0 0.0
2017-Oct-30 17:58N 36°50' W 076°17'0 0.0
2017-Oct-30 17:28N 36°50' W 076°17'0 0.0
2017-Oct-30 16:58N 36°50' W 076°17'0 0.0
2017-Oct-30 16:28N 36°50' W 076°17'0 0.0
2017-Oct-30 15:58N 36°50' W 076°17'0 0.0
2017-Oct-30 15:25N 36°50' W 076°17'0 0.0
2017-Oct-30 14:58N 36°50' W 076°17'0 0.0
2017-Oct-30 13:42N 36°50' W 076°17'0 0.0
2017-Oct-30 13:28N 36°50' W 076°17'0 0.0
2017-Oct-30 12:58N 36°50' W 076°17'0 0.0
2017-Oct-30 12:28N 36°50' W 076°17'0 0.0
2017-Oct-30 11:58N 36°50' W 076°17'0 0.0
2017-Oct-30 11:28N 36°50' W 076°17'0 0.0
2017-Oct-30 10:58N 36°50' W 076°17'0 0.0
2017-Oct-30 10:25N 36°50' W 076°17'0 0.0
2017-Oct-30 09:58N 36°50' W 076°17'0 0.0
2017-Oct-30 09:28N 36°50' W 076°17'0 0.0
2017-Oct-30 08:58N 36°50' W 076°17'0 0.0
2017-Oct-30 08:25N 36°50' W 076°17'0 0.0
2017-Oct-30 07:52N 36°50' W 076°17'0 0.0
2017-Oct-30 07:28N 36°50' W 076°17'0 0.0
2017-Oct-30 06:58N 36°50' W 076°17'0 0.0
2017-Oct-30 06:28N 36°50' W 076°17'0 0.0
2017-Oct-30 05:52N 36°50' W 076°17'0 0.0
2017-Oct-30 05:28N 36°50' W 076°17'0 0.0
2017-Oct-30 04:58N 36°50' W 076°17'0 0.0
2017-Oct-30 04:28N 36°50' W 076°17'0 0.0
2017-Oct-30 03:58N 36°50' W 076°17'0 0.0
2017-Oct-30 03:28N 36°50' W 076°17'0 0.0
2017-Oct-30 02:58N 36°50' W 076°17'0 0.0
2017-Oct-30 02:28N 36°50' W 076°17'0 0.0
2017-Oct-30 01:58N 36°50' W 076°17'0 0.0
2017-Oct-30 01:28N 36°50' W 076°17'0 0.0
2017-Oct-30 00:58N 36°50' W 076°17'0 0.0
2017-Oct-30 00:28N 36°50' W 076°17'0 0.0
2017-Oct-29 23:55N 36°50' W 076°17'0 0.0
2017-Oct-29 23:28N 36°50' W 076°17'0 0.0
2017-Oct-29 22:58N 36°50' W 076°17'0 0.0
2017-Oct-29 22:28N 36°50' W 076°17'0 0.0
2017-Oct-29 21:58N 36°50' W 076°17'0 0.0
2017-Oct-29 21:28N 36°50' W 076°17'0 0.0
2017-Oct-29 20:55N 36°50' W 076°17'0 0.0
2017-Oct-29 20:22N 36°50' W 076°17'0 0.0
2017-Oct-29 19:58N 36°50' W 076°17'0 0.0
2017-Oct-29 19:28N 36°50' W 076°17'0 0.0
2017-Oct-29 18:49N 36°50' W 076°17'0 0.0
2017-Oct-29 18:28N 36°50' W 076°17'0 0.0
2017-Oct-29 17:58N 36°50' W 076°17'0 0.0
2017-Oct-29 17:25N 36°50' W 076°17'0 0.0
2017-Oct-29 16:58N 36°50' W 076°17'0 0.0
2017-Oct-29 16:28N 36°50' W 076°17'0 0.0
2017-Oct-29 15:52N 36°50' W 076°17'0 0.0
2017-Oct-29 15:25N 36°50' W 076°17'0 0.0
2017-Oct-29 14:55N 36°50' W 076°17'0 0.0
2017-Oct-29 14:28N 36°50' W 076°17'0 0.0
2017-Oct-29 13:58N 36°50' W 076°17'0 0.0
2017-Oct-29 13:28N 36°50' W 076°17'0 0.0
2017-Oct-29 12:58N 36°50' W 076°17'0 0.0
2017-Oct-29 12:28N 36°50' W 076°17'0 0.0
2017-Oct-29 11:58N 36°50' W 076°17'0 0.0
2017-Oct-29 11:28N 36°50' W 076°17'0 0.0
2017-Oct-29 10:58N 36°50' W 076°17'0 0.0
2017-Oct-29 10:28N 36°50' W 076°17'0 0.0
2017-Oct-29 09:58N 36°50' W 076°17'0 0.0
2017-Oct-29 09:28N 36°50' W 076°17'0 0.0
2017-Oct-29 08:58N 36°50' W 076°17'0 0.0
2017-Oct-29 08:28N 36°50' W 076°17'0 0.0
2017-Oct-29 07:58N 36°50' W 076°17'0 0.0
2017-Oct-29 07:28N 36°50' W 076°17'0 0.0
2017-Oct-29 06:58N 36°50' W 076°17'0 0.0
2017-Oct-29 06:28N 36°50' W 076°17'0 0.0
2017-Oct-29 05:58N 36°50' W 076°17'0 0.0
2017-Oct-29 05:28N 36°50' W 076°17'0 0.0
2017-Oct-29 04:58N 36°50' W 076°17'0 0.0
2017-Oct-29 04:28N 36°50' W 076°17'0 0.0
2017-Oct-29 03:49N 36°50' W 076°17'0 0.0
2017-Oct-28 18:58N 36°50' W 076°17'  
Track history (hours):
 
Tides and Currents Weather Stations Pressure Air Temp Water Temp Dewpoint Dewpoint Depression Visibility Wind Speed Wind Dir Waves Ship Positions

USAV Mg Robert Small

Last reported at 2017-Nov-07 18:44 UTC. Time now 2017-Nov-18 19:38 UTC.
Position N 36°50' W 076°17'.
Warning: this ship's position is 11 days out of date.

Type: Military. MMSI: 369872000.

Date/timePositionNaut miles runAvg speedWind from/ knotsBaromVisibWave heightAir tempDewpointWater temp
2017-Nov-07 18:44N 36°50' W 076°17'0 0.0
2017-Nov-07 18:29N 36°50' W 076°17'1 2.0
2017-Nov-07 18:00N 36°51' W 076°18'2 3.1
2017-Nov-07 17:30N 36°52' W 076°19'3 5.7
2017-Nov-07 17:01N 36°54' W 076°20'3 6.0
2017-Nov-07 16:30N 36°57' W 076°21'1 1.8
2017-Nov-07 16:00N 36°57' W 076°22'0 0.7
2017-Nov-07 15:30N 36°57' W 076°22'8 0.9
2017-Nov-07 05:59N 36°50' W 076°17'0 0.0
2017-Nov-07 05:26N 36°50' W 076°17'0 0.0
2017-Nov-07 04:59N 36°50' W 076°17'0 0.0
2017-Nov-07 04:29N 36°50' W 076°17'0 0.0
2017-Nov-07 03:59N 36°50' W 076°17'0 0.0
2017-Nov-07 03:29N 36°50' W 076°17'0 0.0
2017-Nov-07 02:59N 36°50' W 076°17'0 0.0
2017-Nov-07 02:29N 36°50' W 076°17'0 0.0
2017-Nov-07 01:59N 36°50' W 076°17'0 0.0
2017-Nov-07 01:29N 36°50' W 076°17'0 0.0
2017-Nov-07 01:00N 36°50' W 076°17'0 0.0
2017-Nov-07 00:29N 36°50' W 076°17'0 0.0
2017-Nov-06 23:59N 36°50' W 076°17'0 0.0
2017-Nov-06 23:30N 36°50' W 076°17'0 0.0
2017-Nov-06 23:00N 36°50' W 076°17'0 0.0
2017-Nov-06 22:26N 36°50' W 076°17'0 0.0
2017-Nov-06 21:53N 36°50' W 076°17'0 0.0
2017-Nov-06 21:26N 36°50' W 076°17'0 0.0
2017-Nov-06 20:59N 36°50' W 076°17'0 0.0
2017-Nov-06 20:26N 36°50' W 076°17'0 0.0
2017-Nov-06 02:29N 36°50' W 076°17'0 0.0
2017-Nov-06 01:59N 36°50' W 076°17'0 0.0
2017-Nov-06 01:29N 36°50' W 076°17'0 0.0
2017-Nov-06 01:00N 36°50' W 076°17'0 0.0
2017-Nov-06 00:29N 36°50' W 076°17'0 0.0
2017-Nov-05 23:59N 36°50' W 076°17'0 0.0
2017-Nov-05 23:29N 36°50' W 076°17'0 0.0
2017-Nov-05 22:56N 36°50' W 076°17'0 0.0
2017-Nov-05 22:30N 36°50' W 076°17'0 0.0
2017-Nov-05 21:59N 36°50' W 076°17'0 0.0
2017-Nov-05 21:29N 36°50' W 076°17'0 0.0
2017-Nov-05 20:59N 36°50' W 076°17'0 0.0
2017-Nov-05 20:26N 36°50' W 076°17'0 0.0
2017-Nov-05 19:59N 36°50' W 076°17'0 0.0
2017-Nov-05 19:29N 36°50' W 076°17'0 0.0
2017-Nov-05 18:59N 36°50' W 076°17'0 0.0
2017-Nov-05 18:29N 36°50' W 076°17'0 0.0
2017-Nov-05 17:59N 36°50' W 076°17'0 0.0
2017-Nov-05 17:23N 36°50' W 076°17'0 0.0
2017-Nov-05 16:59N 36°50' W 076°17'0 0.0
2017-Nov-05 16:29N 36°50' W 076°17'0 0.0
2017-Nov-05 15:53N 36°50' W 076°17'0 0.0
2017-Nov-05 15:29N 36°50' W 076°17'0 0.0
2017-Nov-05 14:59N 36°50' W 076°17'0 0.0
2017-Nov-05 14:26N 36°50' W 076°17'0 0.0
2017-Nov-05 13:56N 36°50' W 076°17'0 0.0
2017-Nov-05 13:29N 36°50' W 076°17'0 0.0
2017-Nov-05 12:59N 36°50' W 076°17'0 0.0
2017-Nov-05 12:29N 36°50' W 076°17'0 0.0
2017-Nov-05 11:59N 36°50' W 076°17'0 0.0
2017-Nov-05 11:26N 36°50' W 076°17'0 0.0
2017-Nov-05 10:56N 36°50' W 076°17'0 0.0
2017-Nov-05 10:29N 36°50' W 076°17'0 0.0
2017-Nov-05 09:59N 36°50' W 076°17'0 0.0
2017-Nov-05 09:29N 36°50' W 076°17'0 0.0
2017-Nov-05 08:56N 36°50' W 076°17'0 0.0
2017-Nov-05 08:29N 36°50' W 076°17'0 0.0
2017-Nov-05 07:59N 36°50' W 076°17'0 0.0
2017-Nov-05 07:26N 36°50' W 076°17'0 0.0
2017-Nov-05 06:59N 36°50' W 076°17'0 0.0
2017-Nov-05 06:26N 36°50' W 076°17'0 0.0
2017-Nov-05 05:59N 36°50' W 076°17'0 0.0
2017-Nov-05 05:29N 36°50' W 076°17'0 0.0
2017-Nov-05 04:59N 36°50' W 076°17'0 0.0
2017-Nov-05 04:29N 36°50' W 076°17'0 0.0
2017-Nov-05 03:56N 36°50' W 076°17'0 0.0
2017-Nov-05 03:29N 36°50' W 076°17'0 0.0
2017-Nov-05 02:56N 36°50' W 076°17'0 0.0
2017-Nov-05 02:29N 36°50' W 076°17'0 0.0
2017-Nov-05 01:59N 36°50' W 076°17'0 0.0
2017-Nov-05 01:29N 36°50' W 076°17'0 0.0
2017-Nov-05 00:59N 36°50' W 076°17'0 0.0
2017-Nov-05 00:20N 36°50' W 076°17'0 0.0
2017-Nov-04 23:59N 36°50' W 076°17'0 0.0
2017-Nov-04 23:30N 36°50' W 076°17'0 0.0
2017-Nov-04 22:59N 36°50' W 076°17'0 0.0
2017-Nov-04 22:29N 36°50' W 076°17'0 0.0
2017-Nov-04 21:59N 36°50' W 076°17'0 0.0
2017-Nov-04 21:29N 36°50' W 076°17'0 0.0
2017-Nov-04 20:56N 36°50' W 076°17'0 0.0
2017-Nov-04 20:29N 36°50' W 076°17'0 0.0
2017-Nov-04 19:59N 36°50' W 076°17'0 0.0
2017-Nov-04 19:17N 36°50' W 076°17'0 0.0
2017-Nov-04 18:59N 36°50' W 076°17'0 0.0
2017-Nov-04 18:29N 36°50' W 076°17'0 0.0
2017-Nov-04 17:59N 36°50' W 076°17'0 0.0
2017-Nov-04 17:29N 36°50' W 076°17'0 0.0
2017-Nov-04 16:59N 36°50' W 076°17'0 0.0
2017-Nov-04 16:29N 36°50' W 076°17'0 0.0
2017-Nov-04 15:59N 36°50' W 076°17'0 0.0
2017-Nov-04 15:29N 36°50' W 076°17'0 0.0
2017-Nov-04 14:56N 36°50' W 076°17'0 0.0
2017-Nov-04 14:29N 36°50' W 076°17'0 0.0
2017-Nov-04 13:59N 36°50' W 076°17'0 0.0
2017-Nov-04 13:29N 36°50' W 076°17'0 0.0
2017-Nov-04 12:59N 36°50' W 076°17'0 0.0
2017-Nov-04 12:29N 36°50' W 076°17'0 0.0
2017-Nov-04 11:59N 36°50' W 076°17'0 0.0
2017-Nov-04 11:26N 36°50' W 076°17'0 0.0
2017-Nov-04 10:59N 36°50' W 076°17'0 0.0
2017-Nov-04 10:29N 36°50' W 076°17'0 0.0
2017-Nov-04 09:59N 36°50' W 076°17'0 0.0
2017-Nov-04 09:29N 36°50' W 076°17'0 0.0
2017-Nov-04 08:56N 36°50' W 076°17'0 0.0
2017-Nov-04 08:29N 36°50' W 076°17'0 0.0
2017-Nov-04 07:56N 36°50' W 076°17'0 0.0
2017-Nov-04 07:29N 36°50' W 076°17'0 0.0
2017-Nov-04 06:59N 36°50' W 076°17'0 0.0
2017-Nov-04 06:29N 36°50' W 076°17'0 0.0
2017-Nov-04 05:59N 36°50' W 076°17'0 0.0
2017-Nov-04 05:29N 36°50' W 076°17'0 0.0
2017-Nov-04 04:59N 36°50' W 076°17'0 0.0
2017-Nov-04 04:29N 36°50' W 076°17'0 0.0
2017-Nov-04 03:56N 36°50' W 076°17'0 0.0
2017-Nov-04 03:29N 36°50' W 076°17'0 0.0
2017-Nov-04 02:59N 36°50' W 076°17'0 0.0
2017-Nov-04 02:29N 36°50' W 076°17'0 0.0
2017-Nov-04 01:56N 36°50' W 076°17'0 0.0
2017-Nov-04 01:23N 36°50' W 076°17'0 0.0
2017-Nov-04 00:59N 36°50' W 076°17'0 0.0
2017-Nov-04 00:29N 36°50' W 076°17'0 0.0
2017-Nov-03 23:59N 36°50' W 076°17'0 0.0
2017-Nov-03 23:29N 36°50' W 076°17'0 0.0
2017-Nov-03 23:00N 36°50' W 076°17'0 0.0
2017-Nov-03 22:29N 36°50' W 076°17'0 0.0
2017-Nov-03 21:59N 36°50' W 076°17'0 0.0
2017-Nov-03 21:29N 36°50' W 076°17'0 0.0
2017-Nov-03 20:59N 36°50' W 076°17'0 0.0
2017-Nov-03 20:29N 36°50' W 076°17'0 0.0
2017-Nov-03 19:59N 36°50' W 076°17'0 0.0
2017-Nov-03 19:29N 36°50' W 076°17'0 0.0
2017-Nov-03 18:59N 36°50' W 076°17'0 0.0
2017-Nov-03 18:29N 36°50' W 076°17'0 0.0
2017-Nov-03 17:56N 36°50' W 076°17'0 0.0
2017-Nov-03 17:29N 36°50' W 076°17'0 0.0
2017-Nov-03 16:59N 36°50' W 076°17'0 0.0
2017-Nov-03 16:29N 36°50' W 076°17'0 0.0
2017-Nov-03 15:59N 36°50' W 076°17'0 0.2
2017-Nov-03 15:23N 36°50' W 076°17'0 0.1
2017-Nov-03 14:59N 36°50' W 076°17'0 0.3
2017-Nov-03 14:29N 36°50' W 076°17'0 0.0
2017-Nov-03 13:59N 36°50' W 076°17'0 0.0
2017-Nov-03 13:29N 36°50' W 076°17'0 0.0
2017-Nov-03 12:59N 36°50' W 076°17'0 0.0
2017-Nov-03 12:29N 36°50' W 076°17'0 0.0
2017-Nov-03 11:59N 36°50' W 076°17'0 0.0
2017-Nov-03 11:29N 36°50' W 076°17'0 0.0
2017-Nov-02 19:48N 36°50' W 076°17'0 0.0
2017-Nov-02 19:30N 36°50' W 076°17'0 0.0
2017-Nov-02 19:00N 36°50' W 076°17'0 0.0
2017-Nov-02 18:30N 36°50' W 076°17'0 0.0
2017-Nov-02 18:00N 36°50' W 076°17'0 0.0
2017-Nov-02 17:28N 36°50' W 076°17'0 0.0
2017-Nov-02 16:58N 36°50' W 076°17'0 0.0
2017-Nov-02 16:28N 36°50' W 076°17'0 0.0
2017-Nov-02 15:55N 36°50' W 076°17'0 0.0
2017-Nov-02 15:28N 36°50' W 076°17'0 0.0
2017-Nov-02 14:58N 36°50' W 076°17'0 0.0
2017-Nov-02 14:25N 36°50' W 076°17'0 0.0
2017-Nov-02 13:58N 36°50' W 076°17'0 0.0
2017-Nov-02 13:28N 36°50' W 076°17'0 0.0
2017-Nov-02 12:58N 36°50' W 076°17'0 0.0
2017-Nov-02 12:28N 36°50' W 076°17'0 0.0
2017-Nov-02 11:58N 36°50' W 076°17'0 0.0
2017-Nov-02 11:25N 36°50' W 076°17'0 0.0
2017-Nov-02 10:49N 36°50' W 076°17'0 0.0
2017-Nov-02 10:28N 36°50' W 076°17'0 0.0
2017-Nov-02 09:58N 36°50' W 076°17'0 0.0
2017-Nov-02 09:25N 36°50' W 076°17'0 0.0
2017-Nov-02 08:58N 36°50' W 076°17'0 0.0
2017-Nov-02 08:28N 36°50' W 076°17'0 0.0
2017-Nov-02 07:58N 36°50' W 076°17'0 0.0
2017-Nov-02 07:28N 36°50' W 076°17'0 0.0
2017-Nov-02 06:55N 36°50' W 076°17'0 0.0
2017-Nov-02 06:28N 36°50' W 076°17'0 0.0
2017-Nov-02 05:58N 36°50' W 076°17'0 0.0
2017-Nov-02 05:28N 36°50' W 076°17'0 0.0
2017-Nov-02 04:58N 36°50' W 076°17'0 0.0
2017-Nov-02 04:28N 36°50' W 076°17'0 0.0
2017-Nov-02 03:58N 36°50' W 076°17'0 0.0
2017-Nov-02 03:28N 36°50' W 076°17'0 0.0
2017-Nov-02 02:58N 36°50' W 076°17'0 0.0
2017-Nov-02 02:25N 36°50' W 076°17'0 0.0
2017-Nov-02 01:58N 36°50' W 076°17'0 0.0
2017-Nov-02 01:25N 36°50' W 076°17'0 0.0
2017-Nov-02 00:58N 36°50' W 076°17'0 0.0
2017-Nov-02 00:25N 36°50' W 076°17'0 0.0
2017-Nov-01 23:58N 36°50' W 076°17'0 0.0
2017-Nov-01 23:28N 36°50' W 076°17'0 0.0
2017-Nov-01 22:55N 36°50' W 076°17'0 0.0
2017-Nov-01 22:28N 36°50' W 076°17'0 0.0
2017-Nov-01 21:58N 36°50' W 076°17'0 0.0
2017-Nov-01 21:28N 36°50' W 076°17'0 0.0
2017-Nov-01 20:55N 36°50' W 076°17'0 0.0
2017-Nov-01 20:28N 36°50' W 076°17'0 0.0
2017-Nov-01 19:58N 36°50' W 076°17'0 0.0
2017-Nov-01 19:28N 36°50' W 076°17'0 0.0
2017-Nov-01 18:58N 36°50' W 076°17'0 0.0
2017-Nov-01 18:28N 36°50' W 076°17'0 0.0
2017-Nov-01 01:58N 36°50' W 076°17'0 0.0
2017-Nov-01 01:28N 36°50' W 076°17'0 0.0
2017-Nov-01 00:58N 36°50' W 076°17'0 0.0
2017-Nov-01 00:28N 36°50' W 076°17'0 0.0
2017-Oct-31 23:58N 36°50' W 076°17'0 0.0
2017-Oct-31 23:28N 36°50' W 076°17'0 0.0
2017-Oct-31 22:58N 36°50' W 076°17'0 0.0
2017-Oct-31 22:25N 36°50' W 076°17'0 0.0
2017-Oct-31 21:58N 36°50' W 076°17'0 0.0
2017-Oct-31 21:28N 36°50' W 076°17'0 0.0
2017-Oct-31 20:58N 36°50' W 076°17'0 0.0
2017-Oct-31 20:25N 36°50' W 076°17'0 0.0
2017-Oct-31 19:58N 36°50' W 076°17'0 0.0
2017-Oct-31 19:28N 36°50' W 076°17'0 0.0
2017-Oct-31 18:58N 36°50' W 076°17'0 0.0
2017-Oct-31 18:28N 36°50' W 076°17'0 0.0
2017-Oct-31 17:58N 36°50' W 076°17'0 0.0
2017-Oct-31 17:25N 36°50' W 076°17'0 0.0
2017-Oct-31 16:58N 36°50' W 076°17'0 0.0
2017-Oct-31 16:25N 36°50' W 076°17'0 0.0
2017-Oct-31 15:58N 36°50' W 076°17'0 0.0
2017-Oct-31 15:28N 36°50' W 076°17'0 0.0
2017-Oct-31 14:58N 36°50' W 076°17'0 0.0
2017-Oct-31 14:28N 36°50' W 076°17'0 0.0
2017-Oct-31 13:58N 36°50' W 076°17'0 0.0
2017-Oct-31 13:25N 36°50' W 076°17'0 0.0
2017-Oct-31 12:58N 36°50' W 076°17'0 0.0
2017-Oct-31 12:28N 36°50' W 076°17'0 0.0
2017-Oct-31 11:58N 36°50' W 076°17'0 0.0
2017-Oct-31 11:22N 36°50' W 076°17'0 0.0
2017-Oct-31 10:58N 36°50' W 076°17'0 0.0
2017-Oct-31 10:28N 36°50' W 076°17'0 0.0
2017-Oct-31 09:58N 36°50' W 076°17'0 0.0
2017-Oct-31 09:22N 36°50' W 076°17'0 0.0
2017-Oct-31 08:58N 36°50' W 076°17'0 0.0
2017-Oct-31 08:22N 36°50' W 076°17'0 0.0
2017-Oct-31 07:58N 36°50' W 076°17'0 0.0
2017-Oct-31 07:25N 36°50' W 076°17'0 0.0
2017-Oct-31 06:55N 36°50' W 076°17'0 0.0
2017-Oct-31 06:28N 36°50' W 076°17'0 0.0
2017-Oct-31 05:55N 36°50' W 076°17'0 0.0
2017-Oct-31 05:25N 36°50' W 076°17'0 0.0
2017-Oct-31 04:58N 36°50' W 076°17'0 0.0
2017-Oct-31 04:28N 36°50' W 076°17'0 0.0
2017-Oct-31 03:58N 36°50' W 076°17'0 0.0
2017-Oct-31 03:28N 36°50' W 076°17'0 0.0
2017-Oct-31 02:58N 36°50' W 076°17'0 0.0
2017-Oct-31 02:28N 36°50' W 076°17'0 0.0
2017-Oct-31 01:55N 36°50' W 076°17'0 0.0
2017-Oct-31 01:25N 36°50' W 076°17'0 0.0
2017-Oct-31 00:58N 36°50' W 076°17'0 0.0
2017-Oct-31 00:28N 36°50' W 076°17'0 0.0
2017-Oct-30 23:55N 36°50' W 076°17'0 0.0
2017-Oct-30 23:28N 36°50' W 076°17'0 0.0
2017-Oct-30 22:58N 36°50' W 076°17'0 0.0
2017-Oct-30 22:25N 36°50' W 076°17'0 0.0
2017-Oct-30 21:58N 36°50' W 076°17'0 0.0
2017-Oct-30 21:28N 36°50' W 076°17'0 0.0
2017-Oct-30 20:58N 36°50' W 076°17'0 0.0
2017-Oct-30 20:28N 36°50' W 076°17'0 0.0
2017-Oct-30 19:58N 36°50' W 076°17'0 0.0
2017-Oct-30 19:28N 36°50' W 076°17'0 0.0
2017-Oct-30 18:58N 36°50' W 076°17'0 0.0
2017-Oct-30 18:28N 36°50' W 076°17'0 0.0
2017-Oct-30 17:58N 36°50' W 076°17'0 0.0
2017-Oct-30 17:28N 36°50' W 076°17'0 0.0
2017-Oct-30 16:58N 36°50' W 076°17'0 0.0
2017-Oct-30 16:28N 36°50' W 076°17'0 0.0
2017-Oct-30 15:58N 36°50' W 076°17'0 0.0
2017-Oct-30 15:25N 36°50' W 076°17'0 0.0
2017-Oct-30 14:58N 36°50' W 076°17'0 0.0
2017-Oct-30 13:42N 36°50' W 076°17'0 0.0
2017-Oct-30 13:28N 36°50' W 076°17'0 0.0
2017-Oct-30 12:58N 36°50' W 076°17'0 0.0
2017-Oct-30 12:28N 36°50' W 076°17'0 0.0
2017-Oct-30 11:58N 36°50' W 076°17'0 0.0
2017-Oct-30 11:28N 36°50' W 076°17'0 0.0
2017-Oct-30 10:58N 36°50' W 076°17'0 0.0
2017-Oct-30 10:25N 36°50' W 076°17'0 0.0
2017-Oct-30 09:58N 36°50' W 076°17'0 0.0
2017-Oct-30 09:28N 36°50' W 076°17'0 0.0
2017-Oct-30 08:58N 36°50' W 076°17'0 0.0
2017-Oct-30 08:25N 36°50' W 076°17'0 0.0
2017-Oct-30 07:52N 36°50' W 076°17'0 0.0
2017-Oct-30 07:28N 36°50' W 076°17'0 0.0
2017-Oct-30 06:58N 36°50' W 076°17'0 0.0
2017-Oct-30 06:28N 36°50' W 076°17'0 0.0
2017-Oct-30 05:52N 36°50' W 076°17'0 0.0
2017-Oct-30 05:28N 36°50' W 076°17'0 0.0
2017-Oct-30 04:58N 36°50' W 076°17'0 0.0
2017-Oct-30 04:28N 36°50' W 076°17'0 0.0
2017-Oct-30 03:58N 36°50' W 076°17'0 0.0
2017-Oct-30 03:28N 36°50' W 076°17'0 0.0
2017-Oct-30 02:58N 36°50' W 076°17'0 0.0
2017-Oct-30 02:28N 36°50' W 076°17'0 0.0
2017-Oct-30 01:58N 36°50' W 076°17'0 0.0
2017-Oct-30 01:28N 36°50' W 076°17'0 0.0
2017-Oct-30 00:58N 36°50' W 076°17'0 0.0
2017-Oct-30 00:28N 36°50' W 076°17'0 0.0
2017-Oct-29 23:55N 36°50' W 076°17'0 0.0
2017-Oct-29 23:28N 36°50' W 076°17'0 0.0
2017-Oct-29 22:58N 36°50' W 076°17'0 0.0
2017-Oct-29 22:28N 36°50' W 076°17'0 0.0
2017-Oct-29 21:58N 36°50' W 076°17'0 0.0
2017-Oct-29 21:28N 36°50' W 076°17'0 0.0
2017-Oct-29 20:55N 36°50' W 076°17'0 0.0
2017-Oct-29 20:22N 36°50' W 076°17'0 0.0
2017-Oct-29 19:58N 36°50' W 076°17'0 0.0
2017-Oct-29 19:28N 36°50' W 076°17'0 0.0
2017-Oct-29 18:49N 36°50' W 076°17'0 0.0
2017-Oct-29 18:28N 36°50' W 076°17'0 0.0
2017-Oct-29 17:58N 36°50' W 076°17'0 0.0
2017-Oct-29 17:25N 36°50' W 076°17'0 0.0
2017-Oct-29 16:58N 36°50' W 076°17'0 0.0
2017-Oct-29 16:28N 36°50' W 076°17'0 0.0
2017-Oct-29 15:52N 36°50' W 076°17'0 0.0
2017-Oct-29 15:25N 36°50' W 076°17'0 0.0
2017-Oct-29 14:55N 36°50' W 076°17'0 0.0
2017-Oct-29 14:28N 36°50' W 076°17'0 0.0
2017-Oct-29 13:58N 36°50' W 076°17'0 0.0
2017-Oct-29 13:28N 36°50' W 076°17'0 0.0
2017-Oct-29 12:58N 36°50' W 076°17'0 0.0
2017-Oct-29 12:28N 36°50' W 076°17'0 0.0
2017-Oct-29 11:58N 36°50' W 076°17'0 0.0
2017-Oct-29 11:28N 36°50' W 076°17'0 0.0
2017-Oct-29 10:58N 36°50' W 076°17'0 0.0
2017-Oct-29 10:28N 36°50' W 076°17'0 0.0
2017-Oct-29 09:58N 36°50' W 076°17'0 0.0
2017-Oct-29 09:28N 36°50' W 076°17'0 0.0
2017-Oct-29 08:58N 36°50' W 076°17'0 0.0
2017-Oct-29 08:28N 36°50' W 076°17'0 0.0
2017-Oct-29 07:58N 36°50' W 076°17'0 0.0
2017-Oct-29 07:28N 36°50' W 076°17'0 0.0
2017-Oct-29 06:58N 36°50' W 076°17'0 0.0
2017-Oct-29 06:28N 36°50' W 076°17'0 0.0
2017-Oct-29 05:58N 36°50' W 076°17'0 0.0
2017-Oct-29 05:28N 36°50' W 076°17'0 0.0
2017-Oct-29 04:58N 36°50' W 076°17'0 0.0
2017-Oct-29 04:28N 36°50' W 076°17'0 0.0
2017-Oct-29 03:49N 36°50' W 076°17'0 0.0
2017-Oct-28 18:58N 36°50' W 076°17'  

Dump ship's entire track history